Time;durP1;ratioP1;P1;durP2;ratioP2;P2;SDS_P1;SDS_P2;PMS_P1;PMS_P2;Temp;Humidity;BMP_temperature;BMP_pressure;BME280_temperature;BME280_humidity;BME280_pressure;Samples;Min_cycle;Max_cycle;Signal;HPM_P1;HPM_P2
2022/10/29 00:00:22;;;;;;;26.98;16.67;;;;;;;13.18;100.00;102136.91;5032779;28;20105;-73
2022/10/29 00:02:48;;;;;;;31.00;16.27;;;;;;;13.23;100.00;102149.66;5015043;28;20021;-73
2022/10/29 00:05:13;;;;;;;30.20;15.80;;;;;;;13.13;100.00;102142.31;5032809;28;20030;-73
2022/10/29 00:07:38;;;;;;;30.52;16.05;;;;;;;12.99;100.00;102123.22;5032917;28;20022;-72
2022/10/29 00:10:04;;;;;;;28.52;15.10;;;;;;;12.98;100.00;102122.41;5032807;28;20025;-73
2022/10/29 00:12:30;;;;;;;27.13;15.20;;;;;;;12.88;100.00;102114.25;5032943;28;20029;-75
2022/10/29 00:14:55;;;;;;;30.13;14.48;;;;;;;12.87;100.00;102122.94;5032608;28;20021;-76
2022/10/29 00:17:20;;;;;;;23.83;14.93;;;;;;;12.68;100.00;102101.47;5032451;28;20055;-73
2022/10/29 00:19:46;;;;;;;26.02;14.23;;;;;;;12.60;100.00;102107.06;5032608;28;20060;-72
2022/10/29 00:22:11;;;;;;;28.42;14.73;;;;;;;12.49;100.00;102099.00;5032414;28;20025;-72
2022/10/29 00:24:36;;;;;;;23.80;14.07;;;;;;;12.53;100.00;102120.41;5032606;28;20087;-72
2022/10/29 00:27:02;;;;;;;29.75;15.80;;;;;;;12.51;100.00;102125.66;5032588;28;20029;-72
2022/10/29 00:29:27;;;;;;;29.45;15.40;;;;;;;12.44;100.00;102128.63;5032512;28;20018;-72
2022/10/29 00:31:52;;;;;;;25.75;15.20;;;;;;;12.32;100.00;102115.38;5032453;28;20063;-73
2022/10/29 00:34:18;;;;;;;23.98;15.02;;;;;;;12.37;100.00;102133.28;5032451;28;20053;-72
2022/10/29 00:36:43;;;;;;;32.25;15.60;;;;;;;12.29;100.00;102132.81;5034354;28;20521;-75
2022/10/29 00:39:14;;;;;;;23.17;14.77;;;;;;;12.18;100.00;102120.41;5036265;28;20109;-73
2022/10/29 00:41:39;;;;;;;27.60;14.60;;;;;;;12.23;100.00;102138.31;5036245;28;20030;-74
2022/10/29 00:44:13;;;;;;;21.67;13.88;;;;;;;12.25;100.00;102133.88;5036130;28;20022;-72
2022/10/29 00:46:42;;;;;;;22.17;15.63;;;;;;;12.21;100.00;102119.44;5035795;28;20029;-73
2022/10/29 00:49:09;;;;;;;27.35;15.80;;;;;;;12.34;100.00;102133.44;5035857;28;20033;-73
2022/10/29 00:51:36;;;;;;;33.88;15.63;;;;;;;12.40;100.00;102124.53;5036058;28;20034;-73
2022/10/29 00:54:08;;;;;;;26.88;16.05;;;;;;;12.40;100.00;102109.84;5035793;28;20104;-72
2022/10/29 00:56:41;;;;;;;24.55;15.32;;;;;;;12.59;100.00;102133.06;5035784;28;20064;-74
2022/10/29 00:59:08;;;;;;;29.75;15.90;;;;;;;12.64;100.00;102133.66;5036014;28;20381;-74
2022/10/29 01:01:35;;;;;;;27.20;15.80;;;;;;;12.64;100.00;102133.66;5035531;28;20072;-75
2022/10/29 01:04:02;;;;;;;25.48;15.75;;;;;;;12.72;100.00;102141.88;5035581;28;20552;-76
2022/10/29 01:06:29;;;;;;;34.13;17.58;;;;;;;12.83;100.00;102142.16;5035564;28;20038;-74
2022/10/29 01:08:55;;;;;;;25.45;16.33;;;;;;;12.92;100.00;102138.25;5035647;28;20051;-75
2022/10/29 01:11:45;;;;;;;30.38;17.65;;;;;;;13.00;100.00;102130.09;5035454;28;20504;-73
2022/10/29 01:14:47;;;;;;;29.77;17.20;;;;;;;13.02;100.00;102120.47;5035523;28;20366;-73
2022/10/29 01:17:27;;;;;;;26.35;16.15;;;;;;;13.06;100.00;102122.81;5035272;28;20040;-73
2022/10/29 01:20:11;;;;;;;29.10;17.67;;;;;;;13.08;100.00;102122.75;5035386;28;20827;-73
2022/10/29 01:23:27;;;;;;;27.27;17.58;;;;;;;13.08;100.00;102107.19;5035072;28;20426;-74
2022/10/29 01:26:28;;;;;;;29.50;18.52;;;;;;;13.07;100.00;102110.69;5035284;28;20040;-75
2022/10/29 01:29:02;;;;;;;35.33;19.77;;;;;;;13.00;100.00;102106.75;5035185;28;20425;-73
2022/10/29 01:31:50;;;;;;;33.42;17.70;;;;;;;12.93;100.00;102122.63;5035092;28;20038;-74
2022/10/29 01:34:59;;;;;;;28.90;16.98;;;;;;;12.83;100.00;102105.88;5035050;28;20038;-73
2022/10/29 01:37:47;;;;;;;26.58;18.00;;;;;;;12.75;100.00;102108.03;4935734;29;20538;-73
2022/10/29 01:40:41;;;;;;;25.77;17.33;;;;;;;12.77;100.00;102107.94;4935742;29;20046;-74
2022/10/29 01:43:20;;;;;;;28.38;17.35;;;;;;;12.68;100.00;102095.44;4935798;29;20059;-74
2022/10/29 01:46:11;;;;;;;31.42;18.00;;;;;;;12.63;100.00;102087.91;4935470;29;20384;-73
2022/10/29 01:48:42;;;;;;;27.58;17.95;;;;;;;12.45;100.00;102063.78;4934219;29;20043;-75
2022/10/29 01:51:14;;;;;;;29.98;17.08;;;;;;;12.44;100.00;102069.06;4935474;29;20036;-74
2022/10/29 01:53:40;;;;;;;28.52;16.98;;;;;;;12.39;100.00;102069.31;4935427;29;20087;-74
2022/10/29 01:56:06;;;;;;;28.15;17.20;;;;;;;12.23;100.00;102051.09;4919389;29;20547;-75
2022/10/29 01:58:34;;;;;;;30.00;18.15;;;;;;;12.30;100.00;102062.00;4935340;29;20123;-73
2022/10/29 02:01:21;;;;;;;24.90;16.52;;;;;;;12.21;100.00;102065.03;4935274;29;20036;-73
2022/10/29 02:04:34;;;;;;;25.17;14.85;;;;;;;12.13;100.00;102062.00;4934879;29;20040;-73
2022/10/29 02:07:34;;;;;;;28.15;17.35;;;;;;;12.05;100.00;102068.38;4940544;28;20034;-73
2022/10/29 02:10:11;;;;;;;29.27;18.65;;;;;;;11.98;100.00;102058.41;5034378;28;20032;-73
2022/10/29 02:12:46;;;;;;;24.65;14.27;;;;;;;11.92;100.00;102067.31;5034423;28;20025;-73
2022/10/29 02:15:16;;;;;;;26.83;16.90;;;;;;;11.85;100.00;102063.34;5034280;28;20030;-71
2022/10/29 02:17:43;;;;;;;21.40;15.50;;;;;;;11.81;100.00;102077.34;5034253;28;20057;-74
2022/10/29 02:20:11;;;;;;;25.35;15.50;;;;;;;11.75;100.00;102065.50;5034351;28;20028;-74
2022/10/29 02:22:37;;;;;;;25.35;15.45;;;;;;;11.70;100.00;102066.63;5034253;28;20500;-73
2022/10/29 02:25:04;;;;;;;22.30;15.27;;;;;;;11.67;100.00;102065.03;5034169;28;20022;-72
2022/10/29 02:27:29;;;;;;;28.25;15.70;;;;;;;11.59;100.00;102056.78;5034166;28;20025;-74
2022/10/29 02:29:55;;;;;;;24.48;15.93;;;;;;;11.52;100.00;102039.91;5033944;28;20095;-73
2022/10/29 02:32:20;;;;;;;29.92;17.35;;;;;;;11.56;100.00;102038.84;5033646;28;20033;-73
2022/10/29 02:34:45;;;;;;;29.70;17.63;;;;;;;11.60;100.00;102048.13;5033885;28;20108;-76
2022/10/29 02:37:11;;;;;;;29.92;17.95;;;;;;;11.52;100.00;102041.66;5034086;28;20029;-73
2022/10/29 02:39:36;;;;;;;29.25;17.40;;;;;;;11.56;100.00;102046.59;5016317;28;20018;-75
2022/10/29 02:42:01;;;;;;;28.08;16.33;;;;;;;11.54;100.00;102040.66;5033901;28;20496;-74
2022/10/29 02:44:27;;;;;;;28.08;16.30;;;;;;;11.54;100.00;102038.06;5033554;28;20048;-74
2022/10/29 02:46:52;;;;;;;27.42;16.40;;;;;;;11.54;100.00;102030.31;5033702;28;20022;-73
2022/10/29 02:49:17;;;;;;;26.35;16.52;;;;;;;11.49;100.00;102029.69;5033683;28;20021;-75
2022/10/29 02:51:43;;;;;;;21.88;15.82;;;;;;;11.39;100.00;102020.69;5033583;28;20076;-73
2022/10/29 02:54:08;;;;;;;25.17;15.18;;;;;;;11.43;100.00;102030.81;5033688;28;20474;-72
2022/10/29 02:56:33;;;;;;;24.17;16.30;;;;;;;11.43;100.00;102033.41;5033690;28;20025;-72
2022/10/29 02:58:58;;;;;;;24.42;15.70;;;;;;;11.45;100.00;102030.75;5033171;28;20032;-73
2022/10/29 03:01:24;;;;;;;25.23;16.90;;;;;;;11.47;100.00;102026.34;5033503;28;20036;-74
2022/10/29 03:03:49;;;;;;;22.02;15.60;;;;;;;11.47;100.00;102027.16;5033366;28;20473;-73
2022/10/29 03:06:17;;;;;;;29.25;17.17;;;;;;;11.49;100.00;102032.25;5033572;28;20022;-72
2022/10/29 03:08:43;;;;;;;20.55;15.15;;;;;;;11.48;100.00;102030.59;5033553;28;20040;-72
2022/10/29 03:11:09;;;;;;;30.48;16.55;;;;;;;11.44;100.00;102026.50;5033335;28;20025;-73
2022/10/29 03:13:34;;;;;;;26.90;16.25;;;;;;;11.42;100.00;102020.56;5033264;28;20032;-73
2022/10/29 03:15:59;;;;;;;32.30;17.80;;;;;;;11.39;100.00;102007.75;5033348;28;20018;-74
2022/10/29 03:18:25;;;;;;;28.92;17.27;;;;;;;11.44;100.00;102011.81;5033159;28;20397;-74
2022/10/29 03:20:50;;;;;;;25.45;15.93;;;;;;;11.40;100.00;102009.41;5033727;28;20025;-72
2022/10/29 03:23:16;;;;;;;25.63;15.18;;;;;;;11.32;100.00;102004.63;5033005;28;20037;-76
2022/10/29 03:25:41;;;;;;;25.23;16.15;;;;;;;11.35;100.00;102019.16;5033456;28;20029;-73
2022/10/29 03:28:07;;;;;;;29.42;16.92;;;;;;;11.23;100.00;101999.06;5033274;28;20026;-73
2022/10/29 03:30:32;;;;;;;24.90;15.32;;;;;;;11.18;100.00;101994.91;5032994;28;20038;-75
2022/10/29 03:32:57;;;;;;;25.38;15.52;;;;;;;11.31;100.00;102013.31;5033144;28;20032;-74
2022/10/29 03:35:23;;;;;;;23.38;15.20;;;;;;;11.28;100.00;102002.25;5015056;28;20030;-73
2022/10/29 03:37:49;;;;;;;25.48;15.88;;;;;;;11.35;100.00;102007.06;5033309;28;20389;-76
2022/10/29 03:40:15;;;;;;;25.33;16.10;;;;;;;11.34;100.00;101989.03;5033098;28;20034;-74
2022/10/29 03:42:41;;;;;;;23.15;15.88;;;;;;;11.50;100.00;102005.47;5032786;28;20029;-74
2022/10/29 03:45:07;;;;;;;26.27;16.40;;;;;;;11.53;100.00;101999.34;5032831;28;20034;-73
2022/10/29 03:47:33;;;;;;;26.45;16.08;;;;;;;11.53;100.00;101989.00;5032770;28;20456;-76
2022/10/29 03:49:58;;;;;;;24.27;16.75;;;;;;;11.63;100.00;101990.22;5032604;28;20053;-74
2022/10/29 03:52:23;;;;;;;29.63;17.63;;;;;;;11.72;100.00;101990.63;5032977;28;20448;-73
2022/10/29 03:54:49;;;;;;;25.85;16.60;;;;;;;11.73;100.00;101984.53;5032803;28;20470;-81
2022/10/29 03:57:14;;;;;;;24.73;16.48;;;;;;;11.83;100.00;101990.13;5032877;28;20068;-80
2022/10/29 03:59:39;;;;;;;26.10;17.40;;;;;;;11.86;100.00;102002.91;5032917;28;20109;-84
2022/10/29 04:02:05;;;;;;;27.52;17.13;;;;;;;11.84;100.00;101985.78;5032727;28;20033;-83
2022/10/29 04:04:30;;;;;;;29.50;16.75;;;;;;;11.81;100.00;101973.00;5032851;28;20025;-84
2022/10/29 04:06:55;;;;;;;28.15;17.40;;;;;;;11.93;100.00;101988.75;5032727;28;20080;-86
2022/10/29 04:09:21;;;;;;;30.08;18.23;;;;;;;11.95;100.00;101980.91;5032780;28;20033;-77
2022/10/29 04:11:46;;;;;;;28.17;16.63;;;;;;;11.87;100.00;101967.50;5034678;28;20079;-76
2022/10/29 04:14:11;;;;;;;29.48;16.75;;;;;;;11.89;100.00;101966.50;5036744;28;20101;-75
2022/10/29 04:16:37;;;;;;;25.50;16.67;;;;;;;11.80;100.00;101942.81;5036732;28;20037;-75
2022/10/29 04:19:03;;;;;;;27.35;16.70;;;;;;;11.86;100.00;101964.06;5036388;28;20026;-71
2022/10/29 04:21:28;;;;;;;30.67;16.67;;;;;;;11.80;100.00;101969.56;5036510;28;20040;-73
2022/10/29 04:23:54;;;;;;;24.70;15.80;;;;;;;11.73;100.00;101956.06;5018370;28;20136;-74
2022/10/29 04:26:19;;;;;;;21.65;14.68;;;;;;;11.66;100.00;101961.59;5036560;28;20022;-73
2022/10/29 04:28:49;;;;;;;24.90;15.68;;;;;;;11.45;100.00;101938.47;5036346;28;20049;-74
2022/10/29 04:31:14;;;;;;;26.75;16.52;;;;;;;11.63;100.00;101959.19;5036197;28;20061;-73
2022/10/29 04:33:40;;;;;;;26.65;16.38;;;;;;;11.43;100.00;101924.78;5036153;28;20091;-74
2022/10/29 04:36:05;;;;;;;26.58;16.08;;;;;;;11.53;100.00;101927.75;5036314;28;20028;-74
2022/10/29 04:38:31;;;;;;;22.42;15.93;;;;;;;11.62;100.00;101934.22;5036129;28;20068;-74
2022/10/29 04:40:58;;;;;;;24.48;14.55;;;;;;;11.60;100.00;101941.19;5036237;28;20029;-73
2022/10/29 04:43:23;;;;;;;25.73;16.40;;;;;;;11.59;100.00;101948.13;5036118;28;20021;-73
2022/10/29 04:45:53;;;;;;;27.58;16.85;;;;;;;11.62;100.00;101955.75;5036107;28;20037;-73
2022/10/29 04:48:20;;;;;;;25.90;15.07;;;;;;;11.56;100.00;101950.88;5035945;28;20033;-73
2022/10/29 04:50:46;;;;;;;24.52;15.57;;;;;;;11.45;100.00;101940.22;5035597;28;20106;-73
2022/10/29 04:53:11;;;;;;;23.58;15.93;;;;;;;11.49;100.00;101962.41;5035928;28;20061;-73
2022/10/29 04:55:38;;;;;;;26.60;15.60;;;;;;;11.43;100.00;101955.81;5036158;28;20037;-73
2022/10/29 04:58:17;;;;;;;27.95;16.05;;;;;;;11.39;100.00;101963.78;5036032;28;20045;-73
2022/10/29 05:00:43;;;;;;;21.85;14.93;;;;;;;11.32;100.00;101955.50;5035943;28;20056;-72
2022/10/29 05:03:09;;;;;;;24.83;15.25;;;;;;;11.28;100.00;101953.97;5017984;28;20024;-73
2022/10/29 05:05:36;;;;;;;25.08;16.40;;;;;;;11.20;100.00;101946.56;5035331;28;20424;-73
2022/10/29 05:08:03;;;;;;;23.27;15.02;;;;;;;11.17;100.00;101951.88;5035803;28;20033;-76
2022/10/29 05:10:30;;;;;;;22.38;15.13;;;;;;;11.03;100.00;101925.88;5035632;28;20056;-76
2022/10/29 05:13:08;;;;;;;25.13;16.65;;;;;;;11.11;100.00;101939.28;5035609;28;20083;-84
2022/10/29 05:15:34;;;;;;;22.15;15.02;;;;;;;11.13;100.00;101937.44;5035485;28;20442;-76
2022/10/29 05:17:59;;;;;;;22.83;16.10;;;;;;;11.11;100.00;101938.41;5035584;28;20053;-73
2022/10/29 05:20:25;;;;;;;26.27;16.90;;;;;;;11.05;100.00;101928.38;5035180;28;20029;-74
2022/10/29 05:23:05;;;;;;;27.92;16.33;;;;;;;11.11;100.00;101941.00;5035123;28;20056;-74
2022/10/29 05:25:32;;;;;;;23.17;15.70;;;;;;;11.10;100.00;101939.31;5035522;28;20029;-75
2022/10/29 05:28:05;;;;;;;22.23;15.32;;;;;;;11.08;100.00;101941.97;5035378;28;20021;-73
2022/10/29 05:30:32;;;;;;;26.83;16.98;;;;;;;10.96;100.00;101921.03;5035009;28;20025;-75
2022/10/29 05:32:57;;;;;;;25.55;16.38;;;;;;;11.07;100.00;101942.88;5035072;28;20021;-73
2022/10/29 05:35:23;;;;;;;26.42;16.48;;;;;;;11.16;100.00;101933.88;5035154;28;20025;-73
2022/10/29 05:37:52;;;;;;;27.90;16.27;;;;;;;11.13;100.00;101934.84;5035053;28;20027;-73
2022/10/29 05:40:18;;;;;;;30.65;18.75;;;;;;;11.24;100.00;101926.59;5034959;28;20032;-75
2022/10/29 05:42:44;;;;;;;32.22;17.30;;;;;;;11.17;100.00;101917.44;5034706;28;20493;-72
2022/10/29 05:45:09;;;;;;;30.55;18.02;;;;;;;11.24;100.00;101915.41;5034834;28;20029;-75
2022/10/29 05:47:34;;;;;;;28.83;17.77;;;;;;;11.19;100.00;101889.75;5034909;28;20026;-74
2022/10/29 05:50:00;;;;;;;26.38;18.15;;;;;;;11.37;100.00;101916.47;5034856;28;20034;-73
2022/10/29 05:52:25;;;;;;;26.30;17.15;;;;;;;11.41;100.00;101916.25;5034647;28;20495;-73
2022/10/29 05:54:50;;;;;;;29.58;18.67;;;;;;;11.34;100.00;101898.53;5034822;28;20040;-73
2022/10/29 05:57:16;;;;;;;27.48;16.70;;;;;;;11.43;100.00;101903.25;5034905;28;20025;-73
2022/10/29 05:59:41;;;;;;;27.70;17.52;;;;;;;11.52;100.00;101913.16;5034690;28;20064;-73
2022/10/29 06:02:08;;;;;;;30.40;17.83;;;;;;;11.46;100.00;101898.75;5034608;28;20036;-73
2022/10/29 06:04:34;;;;;;;25.33;16.92;;;;;;;11.56;100.00;101911.22;5034824;28;20039;-74
2022/10/29 06:07:00;;;;;;;26.58;17.77;;;;;;;11.46;100.00;101895.34;5034392;28;20104;-73
2022/10/29 06:09:25;;;;;;;29.60;18.65;;;;;;;11.55;100.00;101901.81;5034586;28;20044;-75
2022/10/29 06:11:50;;;;;;;32.67;18.15;;;;;;;11.58;100.00;101896.47;5034445;28;20029;-74
2022/10/29 06:14:16;;;;;;;35.75;21.08;;;;;;;11.65;100.00;101898.69;5034479;28;20079;-76
2022/10/29 06:16:41;;;;;;;40.85;25.25;;;;;;;11.80;100.00;101901.41;5034253;28;20111;-77
2022/10/29 06:19:06;;;;;;;44.47;24.45;;;;;;;11.86;100.00;101909.72;5034434;28;20105;-73
2022/10/29 06:21:32;;;;;;;40.92;24.33;;;;;;;11.90;100.00;101905.25;5016046;28;20156;-72
2022/10/29 06:23:57;;;;;;;43.17;26.33;;;;;;;11.87;100.00;101897.63;5034024;28;20049;-73
2022/10/29 06:26:23;;;;;;;43.13;25.42;;;;;;;12.02;100.00;101912.38;5034353;28;20042;-72
2022/10/29 06:28:48;;;;;;;45.55;27.23;;;;;;;12.10;100.00;101912.81;5034134;28;20033;-73
2022/10/29 06:31:13;;;;;;;48.58;26.33;;;;;;;12.09;100.00;101902.50;5034066;28;20092;-74
2022/10/29 06:33:39;;;;;;;49.30;26.40;;;;;;;12.17;100.00;101921.91;5033565;28;20021;-74
2022/10/29 06:36:04;;;;;;;50.30;27.42;;;;;;;12.27;100.00;101925.69;5034020;28;20415;-75
2022/10/29 06:38:30;;;;;;;45.08;27.55;;;;;;;12.28;100.00;101921.34;5033977;28;20080;-74
2022/10/29 06:40:55;;;;;;;50.63;26.42;;;;;;;12.32;100.00;101920.28;5033988;28;20056;-75
2022/10/29 06:43:20;;;;;;;48.88;26.40;;;;;;;12.13;100.00;101886.75;5016167;28;20119;-74
2022/10/29 06:45:48;;;;;;;51.10;26.25;;;;;;;12.42;100.00;101920.63;5033894;28;20022;-74
2022/10/29 06:48:13;;;;;;;46.35;26.17;;;;;;;12.44;100.00;101929.16;5033639;28;20023;-74
2022/10/29 06:50:39;;;;;;;49.80;27.30;;;;;;;12.37;100.00;101915.69;5033680;28;20033;-74
2022/10/29 06:53:06;;;;;;;50.65;26.58;;;;;;;12.48;100.00;101938.44;5033644;28;20113;-74
2022/10/29 06:55:33;;;;;;;48.67;27.88;;;;;;;12.50;100.00;101931.44;5033775;28;20040;-74
2022/10/29 06:58:03;;;;;;;43.13;26.20;;;;;;;12.51;100.00;101925.31;5033472;28;20026;-73
2022/10/29 07:00:30;;;;;;;49.55;26.67;;;;;;;12.54;100.00;101923.41;5033763;28;20022;-73
2022/10/29 07:02:55;;;;;;;47.78;26.65;;;;;;;12.60;100.00;101927.44;5033370;28;20508;-74
2022/10/29 07:05:21;;;;;;;47.75;26.85;;;;;;;12.60;100.00;101919.66;5033581;28;20021;-73
2022/10/29 07:07:47;;;;;;;48.53;27.50;;;;;;;12.68;100.00;101922.66;5015252;28;20044;-74
2022/10/29 07:10:12;;;;;;;48.05;27.25;;;;;;;12.71;100.00;101919.91;5033374;28;20026;-73
2022/10/29 07:12:41;;;;;;;43.42;26.73;;;;;;;12.71;100.00;101914.72;5015721;28;20025;-74
2022/10/29 07:15:07;;;;;;;46.85;26.50;;;;;;;12.79;100.00;101920.34;5033353;28;20022;-75
2022/10/29 07:17:33;;;;;;;43.60;26.85;;;;;;;12.79;100.00;101925.50;5033230;28;20029;-75
2022/10/29 07:19:58;;;;;;;46.75;26.55;;;;;;;12.86;100.00;101926.81;5033287;28;20021;-73
2022/10/29 07:22:23;;;;;;;48.63;26.17;;;;;;;12.83;100.00;101908.84;5031611;28;20111;-73
2022/10/29 07:24:49;;;;;;;44.35;25.98;;;;;;;12.92;100.00;101920.47;5033339;28;20121;-73
2022/10/29 07:27:14;;;;;;;46.92;27.83;;;;;;;12.92;100.00;101913.53;5033257;28;20048;-71
2022/10/29 07:29:39;;;;;;;50.47;27.15;;;;;;;13.00;100.00;101913.13;5032969;28;20025;-73
2022/10/29 07:32:05;;;;;;;47.85;27.98;;;;;;;13.07;100.00;101906.66;5032829;28;20032;-74
2022/10/29 07:34:30;;;;;;;48.88;27.98;;;;;;;13.03;100.00;101893.94;5033196;28;20030;-75
2022/10/29 07:36:56;;;;;;;47.03;27.52;;;;;;;13.17;100.00;101909.56;5033209;28;20377;-77
2022/10/29 07:39:21;;;;;;;51.42;29.98;;;;;;;13.14;100.00;101892.41;5032834;28;20032;-86
2022/10/29 07:41:46;;;;;;;50.53;28.45;;;;;;;13.22;100.00;101904.16;5033125;28;20029;-75
2022/10/29 07:44:12;;;;;;;55.53;28.95;;;;;;;13.24;100.00;101897.13;5033014;28;20044;-82
2022/10/29 07:46:37;;;;;;;47.90;29.58;;;;;;;13.30;100.00;101899.38;5034653;28;20037;-75
2022/10/29 07:49:02;;;;;;;53.05;29.20;;;;;;;13.01;100.00;101859.50;5019146;28;20441;-73
2022/10/29 07:51:28;;;;;;;46.67;28.27;;;;;;;13.33;100.00;101904.38;5037108;28;20038;-74
2022/10/29 07:53:53;;;;;;;52.30;29.52;;;;;;;13.31;100.00;101899.28;5018864;28;20072;-76
2022/10/29 07:56:18;;;;;;;52.50;29.35;;;;;;;13.29;100.00;101889.94;5036959;28;20108;-72
2022/10/29 07:58:44;;;;;;;55.03;29.55;;;;;;;13.38;100.00;101899.78;5036900;28;20108;-73
2022/10/29 08:01:09;;;;;;;53.58;30.00;;;;;;;13.28;100.00;101878.72;5037021;28;20059;-77
2022/10/29 08:03:35;;;;;;;55.28;30.40;;;;;;;13.40;100.00;101892.72;5036847;28;20499;-74
2022/10/29 08:06:00;;;;;;;55.85;31.17;;;;;;;13.40;100.00;101897.91;5037026;28;20029;-76
2022/10/29 08:08:25;;;;;;;54.95;32.50;;;;;;;13.43;100.00;101901.16;5036622;28;20101;-72
2022/10/29 08:10:51;;;;;;;55.33;32.53;;;;;;;13.45;100.00;101891.53;5036387;28;20065;-72
2022/10/29 08:13:16;;;;;;;58.60;33.40;;;;;;;13.53;100.00;101901.47;5036646;28;20057;-70
2022/10/29 08:15:45;;;;;;;54.38;32.92;;;;;;;13.54;100.00;101900.53;5036575;28;20032;-73
2022/10/29 08:18:14;;;;;;;54.90;33.10;;;;;;;13.53;100.00;101875.50;5036635;28;20112;-85
2022/10/29 08:20:41;;;;;;;55.03;33.33;;;;;;;13.76;100.00;101884.53;5036529;28;20032;-75
2022/10/29 08:23:06;;;;;;;54.10;33.67;;;;;;;13.83;100.00;101865.06;5036178;28;20038;-87
2022/10/29 08:25:31;;;;;;;54.88;33.55;;;;;;;14.12;100.00;101883.25;5036369;28;20040;-86
2022/10/29 08:28:02;;;;;;;51.33;33.42;;;;;;;14.28;100.00;101891.78;5036349;28;20018;-72
2022/10/29 08:30:28;;;;;;;61.33;32.55;;;;;;;14.40;100.00;101885.81;5036253;28;20034;-70
2022/10/29 08:32:54;;;;;;;50.25;31.17;;;;;;;14.46;100.00;101864.69;5036352;28;20033;-72
2022/10/29 08:35:19;;;;;;;52.47;31.13;;;;;;;14.31;100.00;101837.84;5036201;28;20026;-72
2022/10/29 08:37:45;;;;;;;48.95;30.75;;;;;;;14.46;100.00;101859.50;5036255;28;20164;-81
2022/10/29 08:40:52;;;;;;;50.60;30.63;;;;;;;14.51;100.00;101867.81;5036040;28;20105;-83
2022/10/29 08:43:17;;;;;;;54.95;30.90;;;;;;;14.54;100.00;101883.22;5036086;28;20017;-83
2022/10/29 08:45:54;;;;;;;58.78;31.83;;;;;;;14.64;100.00;101886.06;5035977;28;20095;-84
2022/10/29 08:48:38;;;;;;;49.70;31.20;;;;;;;14.79;100.00;101886.88;5036156;28;20156;-82
2022/10/29 08:51:19;;;;;;;49.63;30.88;;;;;;;15.01;100.00;101902.78;5035676;28;20084;-83
2022/10/29 08:53:49;;;;;;;47.42;32.53;;;;;;;15.18;100.00;101889.50;5035939;28;20034;-74
2022/10/29 08:56:24;;;;;;;53.35;32.30;;;;;;;15.37;100.00;101885.69;5035545;28;20112;-74
2022/10/29 08:59:00;;;;;;;48.25;31.70;;;;;;;15.39;100.00;101863.81;5035557;28;20022;-82
2022/10/29 09:01:28;;;;;;;53.33;33.13;;;;;;;15.56;100.00;101888.75;5035471;28;20033;-85
2022/10/29 09:03:54;;;;;;;49.78;30.77;;;;;;;15.64;100.00;101881.28;5035552;28;20425;-84
2022/10/29 09:06:37;;;;;;;58.03;32.53;;;;;;;15.72;100.00;101878.13;5126260;22;20077;-83
2022/10/29 09:09:29;;;;;;;49.28;30.73;;;;;;;15.80;100.00;101875.84;5035450;28;20083;-84
2022/10/29 09:12:27;;;;;;;51.17;30.70;;;;;;;15.85;100.00;101862.53;5035451;28;20025;-82
2022/10/29 09:15:24;;;;;;;53.72;31.25;;;;;;;16.00;100.00;101867.50;4974799;28;20620;-84
2022/10/29 09:18:17;;;;;;;49.08;28.58;;;;;;;16.18;100.00;101854.97;4974429;28;20031;-84
2022/10/29 09:23:39;;;;;;;51.00;28.55;;;;;;;16.43;100.00;101867.13;5146072;23;20090;-84
2022/10/29 09:26:14;;;;;;;50.35;27.90;;;;;;;16.48;100.00;101858.94;5017529;28;20037;-86
2022/10/29 09:29:16;;;;;;;40.30;27.05;;;;;;;16.58;100.00;101862.56;5035686;28;20428;-89
2022/10/29 09:31:47;;;;;;;45.53;28.02;;;;;;;16.61;100.00;101862.34;5038166;28;20048;-83
2022/10/29 09:34:26;;;;;;;;;;;;;;;16.77;100.00;101868.16;5035690;28;20026;-74
2022/10/29 09:36:52;;;;;;;45.28;27.73;;;;;;;16.73;100.00;101861.50;5034575;28;19917;-77
2022/10/29 09:39:39;;;;;;;42.75;26.17;;;;;;;16.76;100.00;101847.41;5035204;28;20059;-76
2022/10/29 09:42:11;;;;;;;49.95;29.45;;;;;;;16.57;100.00;101833.03;5034609;28;20116;-74
2022/10/29 09:44:39;;;;;;;44.70;28.05;;;;;;;16.68;100.00;101862.75;5034830;28;20021;-80
2022/10/29 09:47:41;;;;;;;48.30;27.80;;;;;;;16.67;100.00;101867.13;5035055;28;20426;-84
2022/10/29 09:50:31;;;;;;;46.75;28.05;;;;;;;16.65;100.00;101866.41;5034784;28;20084;-78
2022/10/29 09:52:58;;;;;;;51.00;29.08;;;;;;;16.53;100.00;101838.63;5034971;28;20022;-85
2022/10/29 09:55:42;;;;;;;49.78;28.33;;;;;;;16.72;100.00;101848.59;5034839;28;20425;-75
2022/10/29 09:58:40;;;;;;;46.03;27.10;;;;;;;16.81;100.00;101827.88;5034844;28;20026;-74
2022/10/29 10:01:06;;;;;;;49.40;26.77;;;;;;;16.86;100.00;101830.97;4973711;28;20042;-78
2022/10/29 10:03:41;;;;;;;44.25;27.42;;;;;;;16.98;100.00;101823.16;4973740;28;20403;-76
2022/10/29 10:06:08;;;;;;;51.00;28.20;;;;;;;17.05;100.00;101820.00;4973786;28;20035;-81
2022/10/29 10:08:54;;;;;;;42.65;27.08;;;;;;;17.24;100.00;101822.06;4973208;28;20553;-82
2022/10/29 10:11:19;;;;;;;43.08;27.00;;;;;;;17.36;100.00;101815.91;4973421;28;20051;-78
2022/10/29 10:13:58;;;;;;;40.38;26.85;;;;;;;17.44;100.00;101800.50;4973499;28;20409;-81
2022/10/29 10:16:27;;;;;;;45.47;26.42;;;;;;;17.64;100.00;101806.81;4973599;28;20053;-76
2022/10/29 10:18:52;;;;;;;44.33;24.98;;;;;;;17.95;98.33;101828.78;4973624;28;20402;-87
2022/10/29 10:21:33;;;;;;;43.08;22.55;;;;;;;18.15;97.36;101824.59;4973355;28;20027;-86
2022/10/29 10:23:59;;;;;;;42.58;24.02;;;;;;;18.18;96.28;101802.63;4973531;28;20039;-75
2022/10/29 10:26:43;;;;;;;42.28;23.92;;;;;;;18.39;95.50;101821.84;4973249;28;20042;-74
2022/10/29 10:29:20;;;;;;;38.05;21.33;;;;;;;18.38;94.43;101820.16;4973308;28;20101;-91
2022/10/29 10:31:54;;;;;;;33.90;20.20;;;;;;;18.27;94.26;101813.16;4973511;28;20399;-72
2022/10/29 10:34:21;;;;;;;37.60;20.50;;;;;;;18.22;94.21;101812.72;4973650;28;20119;-88
2022/10/29 10:37:00;;;;;;;38.30;19.58;;;;;;;18.11;95.13;101812.75;4982625;28;20037;-75
2022/10/29 10:39:27;;;;;;;31.55;18.17;;;;;;;18.06;94.38;101802.63;5014202;28;20117;-82
2022/10/29 10:41:54;;;;;;;31.95;16.92;;;;;;;18.13;94.80;101802.16;5014110;28;20430;-86
2022/10/29 10:44:21;;;;;;;28.40;15.65;;;;;;;18.15;93.25;101803.69;5014278;28;20026;-74
2022/10/29 10:46:50;;;;;;;35.75;15.88;;;;;;;18.26;92.75;101802.84;5014152;28;20064;-73
2022/10/29 10:49:20;;;;;;;29.20;14.90;;;;;;;18.23;90.77;101779.56;5014100;28;20022;-73
2022/10/29 10:51:52;;;;;;;31.90;14.55;;;;;;;18.27;90.59;101779.19;5013905;28;20524;-83
2022/10/29 10:54:28;;;;;;;32.67;15.40;;;;;;;18.42;90.58;101800.66;5014568;28;20022;-76
2022/10/29 10:57:04;;;;;;;29.80;13.43;;;;;;;18.45;91.08;101786.50;5012386;28;20041;-73
2022/10/29 10:59:55;;;;;;;24.50;13.02;;;;;;;18.47;91.70;101782.81;5014037;28;20033;-85
2022/10/29 11:02:30;;;;;;;27.60;13.13;;;;;;;18.45;88.40;101774.25;5013651;28;20025;-74
2022/10/29 11:05:08;;;;;;;29.98;13.27;;;;;;;18.41;88.55;101775.47;5013957;28;20036;-86
2022/10/29 11:07:38;;;;;;;27.60;13.15;;;;;;;18.52;88.04;101788.50;5013728;28;20557;-91
2022/10/29 11:10:09;;;;;;;25.13;12.77;;;;;;;18.62;87.97;101797.25;5013414;28;20056;-77
2022/10/29 11:12:47;;;;;;;33.40;14.15;;;;;;;18.73;87.95;101796.41;5013440;28;20041;-73
2022/10/29 11:15:19;;;;;;;29.88;12.75;;;;;;;18.76;87.04;101784.84;5013512;28;20022;-89
2022/10/29 11:17:57;;;;;;;29.40;12.05;;;;;;;18.63;88.06;101764.91;5013803;28;20497;-87